Time;durP1;ratioP1;P1;durP2;ratioP2;P2;SDS_P1;SDS_P2;PMS_P1;PMS_P2;Temp;Humidity;BMP_temperature;BMP_pressure;BME280_temperature;BME280_humidity;BME280_pressure;Samples;Min_cycle;Max_cycle;Signal;HPM_P1;HPM_P2
2021/09/22 00:00:17;;;;;;;11.52;10.43;;;11.10;99.90;;;;;;5011481;28;20045;-68
2021/09/22 00:02:43;;;;;;;10.35;9.35;;;11.10;99.90;;;;;;5029882;28;20518;-68
2021/09/22 00:05:09;;;;;;;9.63;8.75;;;11.10;99.90;;;;;;5013983;28;20045;-68
2021/09/22 00:07:35;;;;;;;13.20;9.23;;;11.10;99.90;;;;;;5037755;28;20454;-68
2021/09/22 00:10:00;;;;;;;10.55;9.60;;;11.00;99.90;;;;;;5036670;28;20041;-68
2021/09/22 00:12:26;;;;;;;12.10;10.95;;;11.00;99.90;;;;;;5018893;28;20041;-68
2021/09/22 00:14:52;;;;;;;15.70;11.43;;;11.00;99.90;;;;;;5034756;28;20044;-68
2021/09/22 00:17:17;;;;;;;16.30;10.95;;;11.00;99.90;;;;;;5034336;28;20041;-68
2021/09/22 00:19:43;;;;;;;16.83;10.98;;;11.00;99.90;;;;;;5041816;28;20044;-68
2021/09/22 00:22:09;;;;;;;26.55;12.80;;;10.90;99.90;;;;;;5038380;28;20119;-68
2021/09/22 00:24:35;;;;;;;18.08;12.35;;;10.90;99.90;;;;;;5034558;28;20093;-68
2021/09/22 00:27:00;;;;;;;21.10;12.25;;;10.90;99.90;;;;;;5048696;28;20116;-68
2021/09/22 00:29:26;;;;;;;15.52;13.05;;;10.90;99.90;;;;;;5025661;28;20214;-68
2021/09/22 00:31:52;;;;;;;17.75;11.05;;;10.90;99.90;;;;;;5032272;28;20041;-68
2021/09/22 00:34:18;;;;;;;13.35;12.02;;;10.90;99.90;;;;;;5031890;28;20037;-68
2021/09/22 00:36:44;;;;;;;20.05;13.30;;;10.90;99.90;;;;;;5022238;28;20053;-68
2021/09/22 00:39:10;;;;;;;16.50;11.68;;;10.80;99.90;;;;;;5033093;28;20042;-68
2021/09/22 00:41:36;;;;;;;22.45;12.32;;;10.80;99.90;;;;;;5031850;28;20040;-68
2021/09/22 00:44:02;;;;;;;28.95;12.45;;;10.80;99.90;;;;;;5037434;28;20482;-68
2021/09/22 00:46:27;;;;;;;13.23;11.85;;;10.80;99.90;;;;;;5034951;28;20310;-68
2021/09/22 00:48:53;;;;;;;12.63;10.60;;;10.80;99.90;;;;;;5022071;28;20159;-68
2021/09/22 00:51:20;;;;;;;12.65;11.35;;;10.80;99.90;;;;;;5037642;28;20107;-68
2021/09/22 00:53:46;;;;;;;12.50;11.20;;;10.70;99.90;;;;;;5036657;28;20132;-68
2021/09/22 00:56:11;;;;;;;11.88;10.77;;;10.70;99.90;;;;;;5034078;28;20132;-68
2021/09/22 00:58:37;;;;;;;16.23;10.52;;;10.70;99.90;;;;;;5035199;28;20075;-68
2021/09/22 01:01:03;;;;;;;13.00;11.77;;;10.70;99.90;;;;;;5021481;28;20385;-68
2021/09/22 01:03:29;;;;;;;12.48;11.18;;;10.60;99.90;;;;;;5032808;28;20119;-68
2021/09/22 01:05:56;;;;;;;11.70;10.60;;;10.60;99.90;;;;;;5034534;28;20033;-68
2021/09/22 01:08:23;;;;;;;12.23;11.02;;;10.60;99.90;;;;;;5049723;28;20489;-68
2021/09/22 01:10:49;;;;;;;12.80;10.82;;;10.50;99.90;;;;;;5036384;28;20040;-68
2021/09/22 01:13:17;;;;;;;11.90;10.23;;;10.50;99.90;;;;;;5042490;28;20036;-68
2021/09/22 01:15:43;;;;;;;11.00;10.10;;;10.50;99.90;;;;;;5051335;28;20045;-68
2021/09/22 01:18:27;;;;;;;11.55;10.45;;;10.50;99.90;;;;;;5032465;28;20568;-68
2021/09/22 01:20:55;;;;;;;17.17;10.75;;;10.50;99.90;;;;;;5041413;28;20049;-68
2021/09/22 01:23:22;;;;;;;11.63;10.43;;;10.50;99.90;;;;;;5040933;28;20045;-68
2021/09/22 01:25:50;;;;;;;40.33;12.38;;;10.50;99.90;;;;;;5012067;28;20128;-68
2021/09/22 01:28:21;;;;;;;17.75;11.23;;;10.50;99.90;;;;;;5030307;28;20041;-68
2021/09/22 01:30:47;;;;;;;13.27;10.87;;;10.50;99.90;;;;;;5043184;28;20131;-68
2021/09/22 01:33:15;;;;;;;17.98;11.70;;;10.50;99.90;;;;;;5038340;28;20049;-68
2021/09/22 01:38:12;;;;;;;27.35;11.98;;;10.50;99.90;;;;;;5090121;28;20048;-66
2021/09/22 01:40:37;;;;;;;40.28;11.20;;;10.50;99.90;;;;;;5086296;28;20401;-66
2021/09/22 01:43:05;;;;;;;30.58;10.52;;;10.50;99.90;;;;;;5089217;28;20032;-66
2021/09/22 01:45:32;;;;;;;58.90;10.57;;;10.50;99.90;;;;;;5084589;28;20548;-66
2021/09/22 01:47:58;;;;;;;58.53;9.65;;;10.50;99.90;;;;;;5062688;28;20044;-66
2021/09/22 01:50:24;;;;;;;9.48;8.48;;;10.50;99.90;;;;;;5087186;28;20577;-65
2021/09/22 01:52:52;;;;;;;13.07;9.50;;;10.50;99.90;;;;;;5091374;28;20397;-65
2021/09/22 01:55:20;;;;;;;16.50;9.82;;;10.50;99.90;;;;;;5086631;28;20044;-66
2021/09/22 01:57:46;;;;;;;48.72;12.30;;;10.50;99.90;;;;;;5089569;28;20032;-66
2021/09/22 02:00:12;;;;;;;42.13;12.32;;;10.50;99.90;;;;;;5088762;28;20143;-65
2021/09/22 02:02:37;;;;;;;41.45;12.77;;;10.60;99.90;;;;;;5089504;28;20035;-66
2021/09/22 02:05:03;;;;;;;38.72;12.13;;;10.60;99.90;;;;;;5090089;28;20031;-66
2021/09/22 02:07:31;;;;;;;15.55;12.02;;;10.60;99.90;;;;;;5088126;28;20040;-66
2021/09/22 02:09:58;;;;;;;21.15;12.25;;;10.60;99.90;;;;;;5087967;28;20043;-65
2021/09/22 02:12:27;;;;;;;20.15;12.70;;;10.60;99.90;;;;;;5089865;28;20048;-66
2021/09/22 02:14:53;;;;;;;12.45;11.07;;;10.70;99.90;;;;;;5087283;28;20048;-66
2021/09/22 02:17:19;;;;;;;25.48;13.40;;;10.60;99.90;;;;;;5086713;28;20469;-65
2021/09/22 02:19:44;;;;;;;32.17;12.85;;;10.60;99.90;;;;;;5079438;28;20080;-65
2021/09/22 02:22:10;;;;;;;26.23;12.57;;;10.60;99.90;;;;;;5088153;28;20040;-66
2021/09/22 02:24:42;;;;;;;59.40;13.02;;;10.60;99.90;;;;;;5088458;28;20040;-65
2021/09/22 02:27:08;;;;;;;24.85;12.75;;;10.60;99.90;;;;;;5090382;28;20043;-65
2021/09/22 02:29:33;;;;;;;29.67;11.73;;;10.60;99.90;;;;;;5088684;28;20044;-65
2021/09/22 02:31:59;;;;;;;66.95;15.10;;;10.70;99.90;;;;;;5086578;28;20165;-66
2021/09/22 02:34:24;;;;;;;28.20;13.98;;;10.70;99.90;;;;;;5086666;28;20106;-67
2021/09/22 02:36:50;;;;;;;31.63;13.00;;;10.70;99.90;;;;;;5084827;28;20056;-65
2021/09/22 02:39:15;;;;;;;40.53;13.98;;;10.70;99.90;;;;;;5090093;28;20504;-65
2021/09/22 02:41:41;;;;;;;44.38;14.63;;;10.70;99.90;;;;;;5082528;28;20048;-66
2021/09/22 02:44:06;;;;;;;37.08;14.43;;;10.70;99.90;;;;;;5087458;28;20039;-66
2021/09/22 02:46:32;;;;;;;27.10;13.80;;;10.80;99.90;;;;;;5089171;28;20063;-66
2021/09/22 02:48:58;;;;;;;32.80;15.35;;;10.80;99.90;;;;;;5089269;28;20040;-66
2021/09/22 02:51:23;;;;;;;27.63;14.48;;;10.90;99.90;;;;;;5083268;28;20048;-66
2021/09/22 02:53:49;;;;;;;25.67;15.68;;;10.90;99.90;;;;;;5090780;28;20098;-66
2021/09/22 02:56:14;;;;;;;27.13;17.27;;;10.90;99.90;;;;;;5085124;28;20043;-66
2021/09/22 02:58:40;;;;;;;21.35;16.35;;;11.00;99.90;;;;;;5074339;28;20036;-67
2021/09/22 03:01:05;;;;;;;17.73;16.00;;;11.00;99.90;;;;;;5088848;28;20111;-66
2021/09/22 03:03:31;;;;;;;34.35;18.42;;;11.10;99.90;;;;;;5087813;28;20482;-65
2021/09/22 03:05:57;;;;;;;27.52;16.30;;;11.10;99.90;;;;;;5090307;28;20035;-66
2021/09/22 03:08:23;;;;;;;29.83;17.83;;;11.20;99.90;;;;;;5071112;28;20043;-65
2021/09/22 03:10:49;;;;;;;43.88;18.88;;;11.20;99.90;;;;;;5090473;28;20039;-67
2021/09/22 03:13:15;;;;;;;21.65;17.95;;;11.20;99.90;;;;;;5090481;28;20086;-66
2021/09/22 03:15:40;;;;;;;29.48;18.08;;;11.30;99.90;;;;;;5077840;28;20075;-65
2021/09/22 03:18:06;;;;;;;71.22;19.73;;;11.30;99.90;;;;;;5090259;28;20374;-66
2021/09/22 03:20:31;;;;;;;64.13;19.75;;;11.30;99.90;;;;;;5090239;28;20044;-66
2021/09/22 03:22:57;;;;;;;43.33;18.92;;;11.30;99.90;;;;;;5090020;28;20035;-66
2021/09/22 03:25:22;;;;;;;49.35;18.10;;;11.40;99.90;;;;;;5087527;28;20087;-66
2021/09/22 03:27:48;;;;;;;25.98;17.70;;;11.40;99.90;;;;;;5088484;28;20047;-66
2021/09/22 03:30:14;;;;;;;73.53;20.67;;;11.40;99.90;;;;;;5088986;28;20442;-65
2021/09/22 03:32:40;;;;;;;40.00;19.70;;;11.40;99.90;;;;;;5072595;28;20117;-66
2021/09/22 03:35:05;;;;;;;18.15;16.20;;;11.50;99.90;;;;;;5080691;28;20119;-66
2021/09/22 03:37:31;;;;;;;73.22;19.83;;;11.50;99.90;;;;;;5069941;28;20048;-66
2021/09/22 03:39:57;;;;;;;40.28;19.83;;;11.50;99.90;;;;;;5082230;28;20048;-66
2021/09/22 03:42:22;;;;;;;21.15;18.92;;;11.50;99.90;;;;;;5088849;28;20063;-66
2021/09/22 03:44:48;;;;;;;33.40;19.63;;;11.60;99.90;;;;;;5085386;28;20024;-66
2021/09/22 03:47:14;;;;;;;22.30;19.92;;;11.60;99.90;;;;;;5070030;28;20611;-66
2021/09/22 03:49:40;;;;;;;24.17;19.23;;;11.60;99.90;;;;;;5071161;28;20076;-67
2021/09/22 03:52:05;;;;;;;20.60;18.60;;;11.60;99.90;;;;;;5090621;28;20397;-66
2021/09/22 03:54:31;;;;;;;21.45;19.25;;;11.70;99.90;;;;;;5092074;28;20069;-66
2021/09/22 03:56:56;;;;;;;22.92;20.50;;;11.70;99.90;;;;;;5093423;28;20065;-66
2021/09/22 03:59:22;;;;;;;21.88;19.67;;;11.70;99.90;;;;;;5092591;28;20040;-66
2021/09/22 04:01:47;;;;;;;28.17;20.33;;;11.70;99.90;;;;;;5091804;28;20498;-66
2021/09/22 04:04:13;;;;;;;22.63;20.17;;;11.70;99.90;;;;;;5090748;28;20031;-66
2021/09/22 04:06:39;;;;;;;22.45;20.35;;;11.70;99.90;;;;;;5086347;28;20432;-66
2021/09/22 04:09:05;;;;;;;21.65;19.65;;;11.80;99.90;;;;;;5094265;28;20169;-66
2021/09/22 04:11:30;;;;;;;21.50;19.42;;;11.80;99.90;;;;;;5092548;28;20354;-67
2021/09/22 04:13:56;;;;;;;21.50;19.50;;;11.70;99.90;;;;;;5094218;28;20160;-66
2021/09/22 04:16:22;;;;;;;20.90;18.90;;;11.80;99.90;;;;;;5092089;28;20044;-66
2021/09/22 04:18:48;;;;;;;20.45;18.52;;;11.80;99.90;;;;;;5091850;28;20032;-67
2021/09/22 04:21:13;;;;;;;20.83;18.92;;;11.80;99.90;;;;;;5074057;28;20119;-66
2021/09/22 04:23:39;;;;;;;21.75;19.75;;;11.80;99.90;;;;;;5088317;28;20076;-66
2021/09/22 04:26:05;;;;;;;21.00;19.10;;;11.80;99.90;;;;;;5087872;28;20044;-66
2021/09/22 04:28:30;;;;;;;21.25;19.05;;;11.80;99.90;;;;;;5075000;28;20059;-66
2021/09/22 04:30:56;;;;;;;21.45;19.45;;;11.80;99.90;;;;;;5092380;28;20080;-66
2021/09/22 04:33:21;;;;;;;22.40;19.88;;;11.80;99.90;;;;;;5073593;28;20054;-66
2021/09/22 04:35:47;;;;;;;21.33;19.17;;;11.80;99.90;;;;;;5092618;28;20067;-66
2021/09/22 04:38:12;;;;;;;22.17;19.83;;;11.80;99.90;;;;;;5088482;28;20048;-66
2021/09/22 04:40:39;;;;;;;22.52;20.33;;;11.70;99.90;;;;;;5092898;28;20028;-66
2021/09/22 04:43:05;;;;;;;22.08;19.83;;;11.70;99.90;;;;;;5093047;28;20046;-66
2021/09/22 04:45:31;;;;;;;22.55;20.15;;;11.70;99.90;;;;;;5091429;28;20048;-66
2021/09/22 04:47:57;;;;;;;23.35;21.05;;;11.70;99.90;;;;;;5093112;28;20154;-66
2021/09/22 04:50:23;;;;;;;26.33;23.05;;;11.70;99.90;;;;;;5092310;28;20505;-67
2021/09/22 04:52:50;;;;;;;26.10;23.30;;;11.60;99.90;;;;;;5091565;28;20079;-66
2021/09/22 04:55:16;;;;;;;26.58;23.48;;;11.60;99.90;;;;;;5090222;28;20461;-65
2021/09/22 04:57:42;;;;;;;30.27;24.08;;;11.60;99.90;;;;;;5091791;28;20087;-65
2021/09/22 05:00:08;;;;;;;34.33;25.27;;;11.60;99.90;;;;;;5091052;28;20122;-66
2021/09/22 05:02:34;;;;;;;30.67;20.70;;;11.70;99.90;;;;;;5087251;28;20028;-66
2021/09/22 05:05:00;;;;;;;36.25;22.60;;;11.60;99.90;;;;;;5087912;28;20062;-66
2021/09/22 05:07:25;;;;;;;38.90;23.42;;;11.60;99.90;;;;;;5092865;28;20047;-66
2021/09/22 05:09:51;;;;;;;28.27;21.98;;;11.70;99.90;;;;;;5092263;28;20028;-66
2021/09/22 05:12:17;;;;;;;39.80;20.98;;;11.70;99.90;;;;;;5091028;28;20101;-66
2021/09/22 05:14:42;;;;;;;34.53;21.92;;;11.70;99.90;;;;;;5079177;28;20036;-66
2021/09/22 05:17:08;;;;;;;23.38;20.10;;;11.70;99.90;;;;;;5091604;28;20040;-68
2021/09/22 05:19:33;;;;;;;36.78;20.00;;;11.70;99.90;;;;;;5091892;28;20050;-65
2021/09/22 05:21:59;;;;;;;30.83;21.35;;;11.70;99.90;;;;;;5092690;28;20054;-66
2021/09/22 05:24:25;;;;;;;33.22;21.23;;;11.70;99.90;;;;;;5092153;28;20040;-66
2021/09/22 05:26:51;;;;;;;38.22;21.23;;;11.70;99.90;;;;;;5090549;28;20040;-66
2021/09/22 05:29:16;;;;;;;52.00;22.13;;;11.70;99.90;;;;;;5090654;28;20036;-66
2021/09/22 05:31:43;;;;;;;47.88;22.60;;;11.70;99.90;;;;;;5092040;28;20032;-66
2021/09/22 05:34:08;;;;;;;66.13;21.63;;;11.70;99.90;;;;;;5081874;28;20445;-66
2021/09/22 05:36:34;;;;;;;98.88;21.63;;;11.70;99.90;;;;;;5089159;28;20052;-71
2021/09/22 05:39:00;;;;;;;30.88;17.23;;;11.70;99.90;;;;;;5082106;28;20028;-72
2021/09/22 05:41:25;;;;;;;22.23;19.33;;;11.70;99.90;;;;;;5089895;28;20044;-72
2021/09/22 05:43:51;;;;;;;36.80;18.38;;;11.70;99.90;;;;;;5088764;28;20073;-72
2021/09/22 05:46:16;;;;;;;21.95;19.70;;;11.70;99.90;;;;;;5086955;28;20040;-71
2021/09/22 05:48:42;;;;;;;44.70;20.05;;;11.80;99.90;;;;;;5090753;28;20036;-71
2021/09/22 05:51:07;;;;;;;36.80;20.30;;;11.80;99.90;;;;;;5090217;28;20036;-73
2021/09/22 05:53:33;;;;;;;35.75;19.33;;;11.80;99.90;;;;;;5089730;28;20036;-72
2021/09/22 05:55:59;;;;;;;22.98;18.48;;;11.80;99.90;;;;;;5088915;28;20044;-72
2021/09/22 05:58:24;;;;;;;44.15;18.20;;;11.90;99.90;;;;;;5091060;28;20055;-71
2021/09/22 06:00:51;;;;;;;61.35;19.45;;;11.90;99.90;;;;;;5088065;28;20090;-66
2021/09/22 06:03:17;;;;;;;47.22;19.70;;;11.90;99.90;;;;;;5089525;28;20087;-66
2021/09/22 06:05:43;;;;;;;37.50;19.00;;;11.90;99.90;;;;;;5090573;28;20070;-66
2021/09/22 06:08:09;;;;;;;45.25;18.42;;;12.00;99.90;;;;;;5091225;28;20552;-66
2021/09/22 06:10:36;;;;;;;51.97;20.35;;;12.00;99.90;;;;;;5090643;28;20032;-66
2021/09/22 06:13:02;;;;;;;30.95;19.17;;;12.00;99.90;;;;;;5091381;28;20028;-66
2021/09/22 06:15:28;;;;;;;23.98;18.63;;;12.10;99.90;;;;;;5067612;28;20044;-66
2021/09/22 06:17:54;;;;;;;48.28;19.35;;;12.10;99.90;;;;;;5086827;28;20040;-66
2021/09/22 06:20:19;;;;;;;28.00;18.80;;;12.10;99.90;;;;;;5088011;28;20396;-67
2021/09/22 06:22:45;;;;;;;27.50;20.27;;;12.10;99.90;;;;;;5089228;28;20032;-66
2021/09/22 06:25:12;;;;;;;27.75;19.05;;;12.20;99.90;;;;;;5089297;28;20040;-66
2021/09/22 06:27:38;;;;;;;23.25;18.02;;;12.30;99.90;;;;;;5085560;28;20393;-66
2021/09/22 06:30:04;;;;;;;58.47;20.23;;;12.30;99.90;;;;;;5089140;28;20035;-67
2021/09/22 06:32:30;;;;;;;47.22;20.13;;;12.40;99.90;;;;;;5087894;28;20051;-66
2021/09/22 06:34:55;;;;;;;26.33;19.42;;;12.40;99.90;;;;;;5086508;28;20039;-67
2021/09/22 06:37:21;;;;;;;47.67;18.15;;;12.50;99.90;;;;;;5088293;28;20048;-66
2021/09/22 06:39:46;;;;;;;49.88;20.55;;;12.50;99.90;;;;;;5089396;28;20040;-67
2021/09/22 06:42:12;;;;;;;53.33;20.85;;;12.60;99.90;;;;;;5090616;28;20071;-66
2021/09/22 06:44:38;;;;;;;30.00;20.23;;;12.60;99.90;;;;;;5090551;28;20035;-67
2021/09/22 06:47:04;;;;;;;52.08;21.77;;;12.70;99.90;;;;;;5084513;28;20485;-66
2021/09/22 06:49:30;;;;;;;31.02;20.83;;;12.70;99.90;;;;;;5085623;28;20442;-66
2021/09/22 06:51:55;;;;;;;33.30;24.52;;;12.70;99.90;;;;;;5087961;28;20036;-66
2021/09/22 06:54:21;;;;;;;42.50;22.45;;;12.80;99.90;;;;;;5090435;28;20047;-66
2021/09/22 06:56:47;;;;;;;32.05;24.20;;;12.80;99.90;;;;;;5090185;28;20039;-66
2021/09/22 06:59:12;;;;;;;39.60;23.35;;;12.90;99.90;;;;;;5088191;28;20040;-66
2021/09/22 07:01:40;;;;;;;32.25;23.42;;;12.90;99.90;;;;;;5088968;28;20089;-66
2021/09/22 07:04:07;;;;;;;46.58;25.20;;;13.00;99.90;;;;;;5093029;28;20036;-67
2021/09/22 07:06:32;;;;;;;27.48;24.38;;;13.00;99.90;;;;;;5087623;28;20044;-66
2021/09/22 07:08:58;;;;;;;33.70;25.13;;;13.10;99.90;;;;;;5084379;28;20445;-67
2021/09/22 07:11:24;;;;;;;30.92;22.73;;;13.10;99.90;;;;;;5084320;28;20036;-66
2021/09/22 07:13:49;;;;;;;41.50;25.40;;;13.20;99.90;;;;;;5083303;28;20130;-67
2021/09/22 07:16:16;;;;;;;31.98;25.30;;;13.30;99.90;;;;;;5089306;28;20032;-66
2021/09/22 07:18:43;;;;;;;30.45;23.55;;;13.30;99.90;;;;;;5090678;28;20036;-67
2021/09/22 07:21:10;;;;;;;41.47;26.80;;;13.40;99.90;;;;;;5086362;28;20044;-66
2021/09/22 07:23:36;;;;;;;48.15;26.15;;;13.40;99.90;;;;;;5088174;28;20028;-73
2021/09/22 07:26:03;;;;;;;32.83;27.20;;;13.40;99.90;;;;;;5084588;28;20326;-66
2021/09/22 07:28:32;;;;;;;47.50;27.75;;;13.50;99.90;;;;;;5080479;28;20048;-66
2021/09/22 07:30:57;;;;;;;49.38;24.73;;;13.60;99.90;;;;;;5086319;28;20036;-66
2021/09/22 07:33:24;;;;;;;35.30;27.85;;;13.70;99.90;;;;;;5097942;28;20431;-66
2021/09/22 07:35:50;;;;;;;49.97;28.17;;;13.80;99.90;;;;;;5094056;22;20109;-62
2021/09/22 07:38:17;;;;;;;35.70;25.98;;;13.90;99.90;;;;;;5049012;28;20290;-61
2021/09/22 07:40:43;;;;;;;46.22;28.52;;;14.00;99.90;;;;;;5043793;28;20063;-62
2021/09/22 07:43:09;;;;;;;81.80;29.17;;;14.10;99.90;;;;;;5050239;28;20037;-61
2021/09/22 07:45:35;;;;;;;37.30;26.52;;;14.10;99.90;;;;;;5032392;28;20404;-62
2021/09/22 07:48:01;;;;;;;68.18;30.17;;;14.20;99.90;;;;;;5049869;28;20037;-62
2021/09/22 07:50:27;;;;;;;35.97;27.67;;;14.20;99.90;;;;;;5048063;28;20068;-62
2021/09/22 07:52:53;;;;;;;45.47;35.13;;;14.30;99.90;;;;;;5026657;28;20037;-62
2021/09/22 07:55:19;;;;;;;38.33;29.02;;;14.40;99.90;;;;;;5049672;28;20037;-62
2021/09/22 07:57:44;;;;;;;39.00;28.25;;;14.50;99.90;;;;;;5019342;28;20505;-62
2021/09/22 08:00:12;;;;;;;39.75;30.55;;;14.60;99.90;;;;;;5036763;28;20029;-62
2021/09/22 08:02:38;;;;;;;45.88;31.27;;;14.70;99.90;;;;;;5031855;28;20049;-62
2021/09/22 08:05:05;;;;;;;40.90;31.27;;;14.80;99.90;;;;;;5031805;28;20467;-62
2021/09/22 08:07:30;;;;;;;39.30;31.45;;;14.90;99.90;;;;;;5037518;28;20174;-62
2021/09/22 08:09:56;;;;;;;41.05;31.35;;;15.00;99.90;;;;;;5023015;28;20119;-62
2021/09/22 08:12:21;;;;;;;50.38;33.38;;;15.00;99.90;;;;;;5044626;28;20037;-62
2021/09/22 08:14:47;;;;;;;38.47;31.83;;;15.10;99.90;;;;;;5044686;28;20043;-62
2021/09/22 08:17:14;;;;;;;43.33;30.50;;;15.20;99.90;;;;;;5037327;28;20499;-62
2021/09/22 08:19:40;;;;;;;43.58;32.60;;;15.40;99.90;;;;;;5026529;28;20044;-61
2021/09/22 08:22:07;;;;;;;42.55;32.65;;;15.40;99.90;;;;;;5036109;28;20048;-62
2021/09/22 08:24:33;;;;;;;42.75;32.10;;;15.40;99.90;;;;;;5046821;28;20044;-62
2021/09/22 08:26:59;;;;;;;45.15;31.25;;;15.50;99.90;;;;;;5029094;28;20044;-62
2021/09/22 08:29:25;;;;;;;36.88;29.55;;;15.50;99.90;;;;;;5046813;28;20049;-62
2021/09/22 08:31:51;;;;;;;37.95;28.65;;;15.50;99.90;;;;;;5026610;28;20478;-62
2021/09/22 08:34:20;;;;;;;45.28;32.92;;;15.60;99.90;;;;;;5040853;28;20051;-62
2021/09/22 08:36:46;;;;;;;45.08;33.78;;;15.70;99.90;;;;;;5026474;28;20056;-62
2021/09/22 08:39:13;;;;;;;40.10;31.48;;;15.80;99.90;;;;;;5045136;28;20049;-62
2021/09/22 08:41:39;;;;;;;49.67;35.88;;;15.90;99.90;;;;;;5032364;28;20037;-62
2021/09/22 08:44:05;;;;;;;45.72;34.58;;;16.00;99.90;;;;;;5046541;28;20040;-62
2021/09/22 08:46:35;;;;;;;39.65;31.85;;;16.00;99.90;;;;;;5050831;28;20045;-62
2021/09/22 08:49:03;;;;;;;34.22;28.25;;;16.10;99.90;;;;;;5047276;28;20041;-62
2021/09/22 08:51:30;;;;;;;35.42;28.23;;;16.20;99.90;;;;;;5043625;28;20041;-62
2021/09/22 08:53:56;;;;;;;40.05;31.17;;;16.30;99.90;;;;;;5038381;28;20037;-62
2021/09/22 08:56:22;;;;;;;41.33;31.98;;;16.40;99.90;;;;;;5044194;28;20445;-62
2021/09/22 08:58:48;;;;;;;41.53;32.13;;;16.50;99.90;;;;;;5041750;28;20037;-62
2021/09/22 09:01:16;;;;;;;45.92;35.85;;;16.60;99.90;;;;;;5028783;28;20398;-62
2021/09/22 09:03:42;;;;;;;43.58;34.35;;;16.60;99.90;;;;;;5049347;28;20747;-62
2021/09/22 09:06:23;;;;;;;49.45;37.95;;;16.70;99.90;;;;;;5041788;28;20120;-62
2021/09/22 09:08:52;;;;;;;50.90;37.72;;;16.60;99.90;;;;;;5051970;28;20048;-62
2021/09/22 09:11:33;;;;;;;46.42;35.92;;;16.70;99.90;;;;;;5017058;28;20069;-62
2021/09/22 09:14:02;;;;;;;52.40;38.22;;;16.70;99.90;;;;;;5033844;28;20391;-62
2021/09/22 09:16:43;;;;;;;52.22;39.60;;;16.90;99.90;;;;;;5033820;28;20060;-62
2021/09/22 09:19:18;;;;;;;49.60;38.50;;;17.00;99.90;;;;;;5033896;28;20589;-62
2021/09/22 09:22:08;;;;;;;56.33;42.55;;;17.10;99.90;;;;;;5045315;28;20079;-62
2021/09/22 09:24:37;;;;;;;56.08;42.58;;;17.10;99.90;;;;;;5035230;28;20042;-62
2021/09/22 09:27:05;;;;;;;51.30;40.80;;;17.20;99.90;;;;;;5035505;28;20075;-62
2021/09/22 09:29:31;;;;;;;48.67;38.55;;;17.30;99.90;;;;;;5016007;28;20087;-61
2021/09/22 09:32:15;;;;;;;53.63;41.88;;;17.40;99.90;;;;;;5045689;28;20036;-61
2021/09/22 09:35:06;;;;;;;50.85;39.95;;;17.60;99.90;;;;;;5042781;28;20140;-61
2021/09/22 09:37:41;;;;;;;47.28;37.95;;;17.80;99.90;;;;;;5029045;28;20111;-62
2021/09/22 09:40:30;;;;;;;49.55;38.65;;;17.90;99.90;;;;;;5037232;28;20542;-62
2021/09/22 09:43:07;;;;;;;48.03;38.90;;;18.10;99.90;;;;;;5043991;28;20034;-62
2021/09/22 09:45:42;;;;;;;44.38;38.10;;;18.30;99.90;;;;;;5050940;28;20120;-62
2021/09/22 09:48:09;;;;;;;48.58;37.72;;;18.40;99.90;;;;;;5039058;28;20697;-62
2021/09/22 09:50:47;;;;;;;44.17;36.58;;;18.40;99.90;;;;;;5050213;28;20099;-61
2021/09/22 09:53:27;;;;;;;39.70;34.72;;;18.50;99.90;;;;;;5029642;28;20052;-61
2021/09/22 09:55:53;;;;;;;41.42;33.78;;;18.50;99.90;;;;;;5050550;28;20053;-62
2021/09/22 09:58:21;;;;;;;35.25;29.35;;;18.50;99.90;;;;;;5039974;28;20045;-62
2021/09/22 10:00:49;;;;;;;34.28;29.30;;;18.70;99.90;;;;;;5052341;28;20073;-61
2021/09/22 10:03:20;;;;;;;34.00;27.23;;;18.70;99.90;;;;;;5043278;28;20716;-61
2021/09/22 10:05:47;;;;;;;32.08;27.83;;;18.90;99.90;;;;;;5044467;28;20463;-61
2021/09/22 10:08:15;;;;;;;29.02;24.67;;;19.00;99.90;;;;;;5044664;28;20107;-62
2021/09/22 10:10:42;;;;;;;28.90;24.92;;;19.10;99.90;;;;;;5039464;28;20194;-61
2021/09/22 10:13:09;;;;;;;29.67;24.60;;;19.10;99.90;;;;;;5023884;28;20593;-62
2021/09/22 10:15:37;;;;;;;26.15;23.35;;;19.30;99.90;;;;;;5047482;28;20104;-62
2021/09/22 10:18:03;;;;;;;30.48;24.17;;;19.40;99.90;;;;;;5047481;28;20037;-62
2021/09/22 10:20:29;;;;;;;21.75;19.23;;;19.40;99.90;;;;;;5025598;28;20048;-62
2021/09/22 10:22:55;;;;;;;26.77;20.25;;;19.50;99.90;;;;;;5031857;28;20382;-62
2021/09/22 10:25:22;;;;;;;22.70;18.88;;;19.50;99.90;;;;;;5037209;28;20040;-62
2021/09/22 10:27:49;;;;;;;24.00;19.30;;;19.40;99.90;;;;;;5032866;28;20434;-62
2021/09/22 10:30:15;;;;;;;23.35;18.27;;;19.40;99.90;;;;;;5050680;28;20045;-62
2021/09/22 10:32:47;;;;;;;25.13;19.95;;;19.50;99.90;;;;;;5051142;28;20052;-62
2021/09/22 10:35:24;;;;;;;24.63;19.52;;;19.60;99.90;;;;;;5050482;28;20033;-62
2021/09/22 10:38:00;;;;;;;21.20;18.15;;;19.60;99.90;;;;;;5050886;28;20049;-62
2021/09/22 10:40:34;;;;;;;20.65;17.88;;;19.60;99.90;;;;;;5050830;28;20047;-62
2021/09/22 10:43:15;;;;;;;19.92;16.98;;;19.50;99.90;;;;;;5051110;28;20037;-62
2021/09/22 10:45:42;;;;;;;21.25;16.80;;;19.40;99.90;;;;;;5050171;28;20052;-63
2021/09/22 10:48:20;;;;;;;23.70;16.30;;;19.50;99.90;;;;;;5051211;28;20105;-62
2021/09/22 10:50:48;;;;;;;16.08;14.20;;;19.70;99.90;;;;;;5048252;28;20090;-62
2021/09/22 10:53:32;;;;;;;19.13;15.10;;;19.80;99.90;;;;;;5048086;28;20056;-62
2021/09/22 10:56:01;;;;;;;16.38;14.57;;;20.00;99.90;;;;;;5050023;28;20466;-62
2021/09/22 10:58:38;;;;;;;17.05;15.20;;;20.10;99.90;;;;;;5050020;28;20040;-62
2021/09/22 11:01:04;;;;;;;19.73;15.88;;;20.10;99.90;;;;;;5031509;28;20121;-62
2021/09/22 11:03:48;;;;;;;17.75;15.30;;;20.20;99.90;;;;;;5028356;28;20467;-63
2021/09/22 11:06:45;;;;;;;18.42;14.88;;;20.20;99.90;;;;;;5037672;28;20047;-63
2021/09/22 11:09:27;;;;;;;17.67;15.88;;;20.20;99.90;;;;;;5036479;28;20491;-63
2021/09/22 11:11:55;;;;;;;17.30;14.25;;;20.50;99.90;;;;;;5033468;28;20487;-63
2021/09/22 11:14:30;;;;;;;18.30;13.32;;;20.60;99.90;;;;;;5020048;28;20125;-63
2021/09/22 11:17:01;;;;;;;20.75;14.40;;;20.70;99.90;;;;;;5043935;28;20090;-63
2021/09/22 11:19:28;;;;;;;18.70;13.68;;;20.70;99.90;;;;;;5021923;28;20048;-62
2021/09/22 11:21:54;;;;;;;17.92;14.38;;;20.50;99.90;;;;;;5048452;28;20048;-62
2021/09/22 11:24:23;;;;;;;16.55;14.63;;;20.50;99.90;;;;;;5048707;28;20120;-63
2021/09/22 11:26:59;;;;;;;17.13;13.40;;;20.50;99.90;;;;;;5045003;28;20494;-63
2021/09/22 11:29:50;;;;;;;15.30;12.80;;;20.50;99.90;;;;;;5022933;28;20059;-62
2021/09/22 11:32:37;;;;;;;15.13;12.02;;;20.70;99.90;;;;;;5033166;28;20132;-62
2021/09/22 11:35:12;;;;;;;15.57;12.20;;;20.50;99.90;;;;;;5022994;28;20071;-63
2021/09/22 11:37:45;;;;;;;14.05;11.55;;;20.40;99.90;;;;;;5048640;28;20045;-63
2021/09/22 11:40:22;;;;;;;13.52;11.75;;;20.50;99.90;;;;;;5032019;28;20087;-63
2021/09/22 11:43:00;;;;;;;16.60;13.13;;;20.60;99.90;;;;;;5050376;28;20041;-63
2021/09/22 11:45:34;;;;;;;14.98;12.32;;;20.70;99.90;;;;;;5032359;28;20103;-63
2021/09/22 11:47:59;;;;;;;12.73;11.43;;;20.80;99.90;;;;;;5026733;28;20398;-63
2021/09/22 11:50:31;;;;;;;16.67;12.10;;;20.60;99.90;;;;;;5039990;28;20030;-63
2021/09/22 11:52:57;;;;;;;13.88;12.35;;;20.50;99.90;;;;;;5012133;28;20396;-62
2021/09/22 11:55:24;;;;;;;13.13;11.25;;;20.30;99.90;;;;;;5013999;28;20049;-62
2021/09/22 11:57:51;;;;;;;11.98;10.52;;;20.40;99.90;;;;;;5034028;28;20120;-63
2021/09/22 12:00:18;;;;;;;14.93;10.40;;;20.60;99.90;;;;;;5049912;28;20128;-62
2021/09/22 12:02:44;;;;;;;12.80;9.93;;;20.80;99.90;;;;;;5050302;28;20041;-63
2021/09/22 12:05:15;;;;;;;13.63;10.65;;;21.00;99.90;;;;;;5047129;28;20115;-63
2021/09/22 12:07:41;;;;;;;13.32;9.68;;;21.20;99.90;;;;;;5039000;28;20086;-62
2021/09/22 12:10:07;;;;;;;13.20;9.15;;;21.30;99.90;;;;;;5049671;28;20044;-63
2021/09/22 12:12:33;;;;;;;13.35;8.88;;;21.40;99.90;;;;;;5028248;28;20052;-62
2021/09/22 12:15:00;;;;;;;12.27;9.20;;;21.60;99.90;;;;;;5039020;28;20419;-63
2021/09/22 12:17:31;;;;;;;10.05;8.73;;;21.70;99.60;;;;;;5053775;28;20037;-63
2021/09/22 12:19:59;;;;;;;9.63;8.60;;;21.80;98.90;;;;;;5053234;28;20041;-63
2021/09/22 12:22:32;;;;;;;12.40;8.43;;;21.80;98.60;;;;;;5049081;28;20472;-64
2021/09/22 12:24:58;;;;;;;11.43;8.32;;;21.80;99.90;;;;;;5027033;28;20042;-63
2021/09/22 12:27:26;;;;;;;10.98;8.90;;;22.00;99.90;;;;;;5044303;28;20131;-63
2021/09/22 12:29:51;;;;;;;11.73;8.73;;;22.10;99.80;;;;;;5053263;28;20051;-63
2021/09/22 12:32:17;;;;;;;12.98;9.23;;;22.00;99.30;;;;;;5024344;28;20116;-63